Time;durP1;ratioP1;P1;durP2;ratioP2;P2;SDS_P1;SDS_P2;PMS_P1;PMS_P2;Temp;Humidity;BMP_temperature;BMP_pressure;BME280_temperature;BME280_humidity;BME280_pressure;Samples;Min_cycle;Max_cycle;Signal;HPM_P1;HPM_P2
2024/01/09 00:02:59;;;;;;;;;;;;;;;-20.49;63.92;96650.44;6227132;28;20394;-67
2024/01/09 00:06:00;;;;;;;;;;;;;;;-20.28;63.73;96644.75;6248017;28;19921;-66
2024/01/09 00:09:06;;;;;;;;;;;;;;;-20.28;63.24;96652.28;6247962;28;19925;-65
2024/01/09 00:12:07;;;;;;;;;;;;;;;-19.98;63.34;96652.88;6247908;28;20548;-66
2024/01/09 00:15:09;;;;;;;;;;;;;;;-20.25;63.11;96642.41;6247816;28;19928;-66
2024/01/09 00:18:10;;;;;;;;;;;;;;;-20.37;63.38;96639.31;6247859;28;19928;-65
2024/01/09 00:21:13;;;;;;;;;;;;;;;-20.38;63.72;96633.41;6247617;28;19921;-67
2024/01/09 00:24:14;;;;;;;;;;;;;;;-20.47;64.01;96621.31;6247563;28;20010;-65
2024/01/09 00:27:19;;;;;;;;;;;;;;;-20.47;63.63;96618.81;6247717;28;19921;-66
2024/01/09 00:30:20;;;;;;;;;;;;;;;-20.45;63.99;96608.91;6246919;28;19927;-65
2024/01/09 00:33:23;;;;;;;;;;;;;;;-20.55;64.19;96615.09;6230084;28;19921;-65
2024/01/09 00:36:24;;;;;;;;;;;;;;;-20.43;64.77;96609.84;6246677;28;19917;-66
2024/01/09 00:39:28;;;;;;;;;;;;;;;-20.47;64.33;96608.81;6213252;28;19971;-65
2024/01/09 00:42:32;;;;;;;;;;;;;;;-20.50;65.22;96607.81;6247170;28;20386;-65
2024/01/09 00:45:33;;;;;;;;;;;;;;;-20.42;64.49;96604.91;6247051;28;19928;-66
2024/01/09 00:48:37;;;;;;;;;;;;;;;-20.34;64.64;96599.41;6247183;28;19940;-66
2024/01/09 00:51:39;;;;;;;;;;;;;;;-20.39;64.71;96592.53;6246908;28;20391;-66
2024/01/09 00:54:43;;;;;;;;;;;;;;;-20.29;64.97;96597.97;6246725;28;19931;-66
2024/01/09 00:57:49;;;;;;;;;;;;;;;-20.36;64.51;96585.97;6246745;28;19921;-65
2024/01/09 01:00:51;;;;;;;;;;;;;;;-20.14;63.77;96578.72;6246715;28;19931;-66
2024/01/09 01:03:55;;;;;;;;;;;;;;;-20.14;64.00;96578.72;6228492;28;19925;-65
2024/01/09 01:06:56;;;;;;;;;;;;;;;-20.29;63.98;96575.47;6245604;28;19921;-66
2024/01/09 01:09:59;;;;;;;;;;;;;;;-20.30;64.32;96573.75;6246569;28;19921;-65
2024/01/09 01:13:01;;;;;;;;;;;;;;;-20.39;65.07;96561.66;6246626;28;19921;-65
2024/01/09 01:16:02;;;;;;;;;;;;;;;-20.43;64.50;96550.66;6246008;28;19921;-67
2024/01/09 01:19:03;;;;;;;;;;;;;;;-20.28;65.33;96559.69;6245838;28;19921;-66
2024/01/09 01:22:04;;;;;;;;;;;;;;;-20.28;64.98;96549.66;6246242;28;20383;-66
2024/01/09 01:25:05;;;;;;;;;;;;;;;-20.07;64.90;96555.66;6246506;28;19925;-65
2024/01/09 01:28:06;;;;;;;;;;;;;;;-20.07;65.05;96550.66;6245881;28;19971;-65
2024/01/09 01:31:08;;;;;;;;;;;;;;;-20.08;64.76;96548.97;6246151;28;19928;-65
2024/01/09 01:34:09;;;;;;;;;;;;;;;-20.12;64.76;96548.72;6228084;28;19921;-66
2024/01/09 01:37:10;;;;;;;;;;;;;;;-20.24;65.05;96544.00;6246047;28;19917;-66
2024/01/09 01:40:11;;;;;;;;;;;;;;;-20.31;65.00;96544.53;6245169;28;20030;-66
2024/01/09 01:43:12;;;;;;;;;;;;;;;-20.26;65.72;96543.94;6245627;28;19917;-66
2024/01/09 01:46:13;;;;;;;;;;;;;;;-19.82;65.79;96544.31;6245687;28;19921;-66
2024/01/09 01:49:17;;;;;;;;;;;;;;;-19.90;64.80;96538.09;6245665;28;20430;-65
2024/01/09 01:52:18;;;;;;;;;;;;;;;-19.91;65.02;96542.25;6245426;28;19921;-65
2024/01/09 01:55:24;;;;;;;;;;;;;;;-19.89;65.49;96544.84;6244779;28;19927;-66
2024/01/09 01:58:29;;;;;;;;;;;;;;;-19.90;65.16;96538.94;6244698;28;19943;-65
2024/01/09 02:01:30;;;;;;;;;;;;;;;-19.93;64.96;96538.78;6227944;28;20416;-66
2024/01/09 02:04:34;;;;;;;;;;;;;;;-19.94;65.87;96537.94;6244973;28;19925;-66
2024/01/09 02:07:36;;;;;;;;;;;;;;;-19.99;65.23;96529.34;6227210;28;19921;-66
2024/01/09 02:10:40;;;;;;;;;;;;;;;-20.06;65.56;96522.38;6245005;28;19921;-67
2024/01/09 02:13:43;;;;;;;;;;;;;;;-20.12;66.04;96519.59;6244418;28;20276;-66
2024/01/09 02:16:44;;;;;;;;;;;;;;;-20.21;65.19;96521.63;6244031;28;19960;-66
2024/01/09 02:20:06;;;;;;;;;;;;;;;-20.27;65.48;96521.34;6227047;28;20023;-66
2024/01/09 02:23:09;;;;;;;;;;;;;;;-20.29;65.53;96512.91;6244702;28;19920;-66
2024/01/09 02:26:11;;;;;;;;;;;;;;;-20.34;65.69;96514.34;6243521;28;20639;-66
2024/01/09 02:29:16;;;;;;;;;;;;;;;-20.34;66.05;96509.34;6226906;28;19944;-66
2024/01/09 02:32:18;;;;;;;;;;;;;;;-20.09;66.04;96512.22;6244206;28;19928;-65
2024/01/09 02:35:21;;;;;;;;;;;;;;;-19.94;65.49;96507.91;6244865;28;19924;-67
2024/01/09 02:38:23;;;;;;;;;;;;;;;-20.07;64.71;96514.75;6243971;28;20062;-66
2024/01/09 02:41:24;;;;;;;;;;;;;;;-20.23;64.37;96521.56;6226486;28;19960;-66
2024/01/09 02:44:27;;;;;;;;;;;;;;;-20.42;64.64;96512.31;6244420;28;19921;-66
2024/01/09 02:47:30;;;;;;;;;;;;;;;-20.56;65.48;96503.34;6244506;28;19920;-66
2024/01/09 02:50:31;;;;;;;;;;;;;;;-20.66;65.01;96488.66;6243849;28;19921;-65
2024/01/09 02:53:33;;;;;;;;;;;;;;;-20.66;65.58;96501.16;6257053;28;19990;-65
2024/01/09 02:56:37;;;;;;;;;;;;;;;-20.71;64.99;96498.47;6268784;28;19966;-66
2024/01/09 02:59:39;;;;;;;;;;;;;;;-20.37;65.15;96499.19;6269183;28;19921;-67
2024/01/09 03:02:40;;;;;;;;;;;;;;;-20.53;64.36;96503.47;6268014;28;19960;-66
2024/01/09 03:05:43;;;;;;;;;;;;;;;-20.50;64.64;96501.09;6268568;28;19920;-64
2024/01/09 03:08:44;;;;;;;;;;;;;;;-20.37;64.49;96499.19;6268591;28;20404;-66
2024/01/09 03:11:47;;;;;;;;;;;;;;;-20.70;63.90;96504.31;6268737;28;19927;-66
2024/01/09 03:14:50;;;;;;;;;;;;;;;-20.77;65.09;96517.28;6268646;28;20333;-66
2024/01/09 03:17:54;;;;;;;;;;;;;;;-20.85;65.21;96499.44;6268716;28;19921;-67
2024/01/09 03:20:55;;;;;;;;;;;;;;;-20.97;64.24;96497.19;6268754;28;20313;-65
2024/01/09 03:23:56;;;;;;;;;;;;;;;-20.80;65.44;96502.13;6249888;28;19946;-66
2024/01/09 03:26:57;;;;;;;;;;;;;;;-20.73;64.30;96507.53;6268636;28;19928;-66
2024/01/09 03:30:01;;;;;;;;;;;;;;;-20.71;63.97;96522.63;6268857;28;19920;-67
2024/01/09 03:33:02;;;;;;;;;;;;;;;-20.69;63.44;96514.41;6250766;28;20374;-66
2024/01/09 03:36:03;;;;;;;;;;;;;;;-20.82;62.82;96513.72;6267990;28;19927;-65
2024/01/09 03:39:11;;;;;;;;;;;;;;;-20.65;62.19;96502.91;6271156;28;20122;-66
2024/01/09 03:42:15;;;;;;;;;;;;;;;-20.74;61.76;96502.47;6273439;28;20023;-66
2024/01/09 03:45:19;;;;;;;;;;;;;;;-20.54;62.06;96489.25;6273220;28;19920;-66
2024/01/09 03:48:25;;;;;;;;;;;;;;;-20.48;62.16;96494.53;6273563;28;19921;-66
2024/01/09 03:51:29;;;;;;;;;;;;;;;-20.46;62.00;96495.47;6273042;28;20337;-66
2024/01/09 03:54:30;;;;;;;;;;;;;;;-20.29;61.43;96492.88;6251564;28;20270;-66
2024/01/09 03:57:34;;;;;;;;;;;;;;;-20.15;61.10;96489.41;6248035;28;20306;-66
2024/01/09 04:00:36;;;;;;;;;;;;;;;-20.31;60.85;96495.31;6247927;28;19921;-66
2024/01/09 04:03:38;;;;;;;;;;;;;;;-20.62;61.95;96488.88;6248609;28;20071;-66
2024/01/09 04:06:44;;;;;;;;;;;;;;;-20.42;62.28;96489.81;6248399;28;19921;-65
2024/01/09 04:09:49;;;;;;;;;;;;;;;-20.08;61.89;96488.88;6248260;28;19920;-66
2024/01/09 04:12:53;;;;;;;;;;;;;;;-20.19;61.57;96485.03;6247981;28;19921;-67
2024/01/09 04:15:56;;;;;;;;;;;;;;;-20.27;61.74;96481.31;6230650;28;19913;-66
2024/01/09 04:18:57;;;;;;;;;;;;;;;-20.12;62.55;96476.16;6247344;28;19920;-65
2024/01/09 04:22:00;;;;;;;;;;;;;;;-20.05;62.56;96464.00;6229645;28;19933;-67
2024/01/09 04:25:02;;;;;;;;;;;;;;;-20.01;62.96;96459.97;6247747;28;20033;-67
2024/01/09 04:28:06;;;;;;;;;;;;;;;-19.91;62.94;96472.13;6247890;28;20301;-65
2024/01/09 04:31:06;;;;;;;;;;;;;;;-19.81;63.68;96469.25;6246863;28;19921;-66
2024/01/09 04:34:07;;;;;;;;;;;;;;;-19.43;63.70;96467.53;6247509;28;19920;-66
2024/01/09 04:37:09;;;;;;;;;;;;;;;-19.25;64.10;96457.44;6247466;28;20405;-66
2024/01/09 04:40:10;;;;;;;;;;;;;;;-18.99;63.75;96461.06;6246957;28;19921;-66
2024/01/09 04:43:11;;;;;;;;;;;;;;;-18.85;64.10;96454.09;6247422;28;19927;-66
2024/01/09 04:46:12;;;;;;;;;;;;;;;-18.58;64.20;96460.19;6247303;28;20366;-66
2024/01/09 04:49:13;;;;;;;;;;;;;;;-18.76;64.26;96463.63;6246839;28;19928;-66
2024/01/09 04:52:14;;;;;;;;;;;;;;;-18.90;64.44;96458.09;6246394;28;19921;-67
2024/01/09 04:55:18;;;;;;;;;;;;;;;-18.92;64.85;96452.13;6246958;28;20067;-66
2024/01/09 04:58:19;;;;;;;;;;;;;;;-18.69;65.13;96451.38;6246469;28;19929;-67
2024/01/09 05:01:21;;;;;;;;;;;;;;;-18.84;64.67;96438.25;6246992;28;19928;-65
2024/01/09 05:04:26;;;;;;;;;;;;;;;-18.75;64.87;96441.13;6246648;28;19921;-66
2024/01/09 05:07:30;;;;;;;;;;;;;;;-18.44;65.10;96432.28;6246479;28;19921;-66
2024/01/09 05:10:34;;;;;;;;;;;;;;;-18.30;64.42;96431.19;6245884;28;19928;-66
2024/01/09 05:13:38;;;;;;;;;;;;;;;-18.20;63.93;96433.25;6246454;28;19925;-66
2024/01/09 05:16:42;;;;;;;;;;;;;;;-18.04;63.68;96428.81;6246722;28;20010;-66
2024/01/09 05:19:43;;;;;;;;;;;;;;;-17.93;63.77;96422.53;6245708;28;20027;-67
2024/01/09 05:22:47;;;;;;;;;;;;;;;-18.06;63.77;96430.38;6246086;28;19927;-67
2024/01/09 05:25:48;;;;;;;;;;;;;;;-18.00;64.25;96435.63;6245928;28;19921;-66
2024/01/09 05:28:49;;;;;;;;;;;;;;;-17.81;63.20;96429.66;6245310;28;19925;-66
2024/01/09 05:31:51;;;;;;;;;;;;;;;-18.18;63.45;96420.75;6245298;28;19921;-66
2024/01/09 05:34:55;;;;;;;;;;;;;;;-17.95;62.49;96419.09;6246032;28;19974;-66
2024/01/09 05:37:58;;;;;;;;;;;;;;;-18.25;62.80;96417.16;6245990;28;19920;-66
2024/01/09 05:40:59;;;;;;;;;;;;;;;-18.13;62.53;96407.56;6245769;28;20011;-66
2024/01/09 05:44:02;;;;;;;;;;;;;;;-18.25;62.70;96408.78;6245760;28;19921;-66
2024/01/09 05:47:06;;;;;;;;;;;;;;;-18.27;63.04;96401.16;6245124;28;19927;-67
2024/01/09 05:50:08;;;;;;;;;;;;;;;-17.85;62.56;96401.06;6245075;28;19921;-65
2024/01/09 05:53:13;;;;;;;;;;;;;;;-17.66;62.19;96398.38;6255889;28;20378;-66
2024/01/09 05:56:14;;;;;;;;;;;;;;;-17.57;61.60;96402.03;6269924;28;19928;-66
2024/01/09 05:59:15;;;;;;;;;;;;;;;-17.46;60.40;96393.22;6269486;28;20390;-66
2024/01/09 06:02:16;;;;;;;;;;;;;;;-17.76;60.64;96391.31;6269322;28;19921;-67
2024/01/09 06:05:22;;;;;;;;;;;;;;;-17.81;59.99;96391.97;6270053;28;20282;-66
2024/01/09 06:08:26;;;;;;;;;;;;;;;-17.88;60.80;96388.38;6252557;28;20274;-65
2024/01/09 06:11:27;;;;;;;;;;;;;;;-17.99;60.82;96387.13;6268988;28;20011;-66
2024/01/09 06:14:31;;;;;;;;;;;;;;;-17.79;61.20;96391.22;6269962;28;19920;-66
2024/01/09 06:17:32;;;;;;;;;;;;;;;-17.96;60.83;96392.28;6269342;28;19928;-66
2024/01/09 06:20:33;;;;;;;;;;;;;;;-17.87;61.52;96391.75;6268878;28;19978;-65
2024/01/09 06:23:35;;;;;;;;;;;;;;;-17.38;60.73;96390.94;6250824;28;19921;-66
2024/01/09 06:26:39;;;;;;;;;;;;;;;-17.56;59.43;96389.50;6269779;28;19927;-66
2024/01/09 06:29:40;;;;;;;;;;;;;;;-17.47;58.73;96394.00;6269150;28;19920;-66
2024/01/09 06:32:43;;;;;;;;;;;;;;;-17.63;58.50;96379.16;6251165;28;20413;-67
2024/01/09 06:35:44;;;;;;;;;;;;;;;-17.78;58.66;96377.84;6268780;28;19932;-66
2024/01/09 06:38:48;;;;;;;;;;;;;;;-17.78;59.13;96387.06;6268516;28;19921;-67
2024/01/09 06:41:50;;;;;;;;;;;;;;;-17.80;58.88;96378.59;6268985;28;20382;-67
2024/01/09 06:44:53;;;;;;;;;;;;;;;-17.76;59.74;96373.72;6269258;28;20401;-67
2024/01/09 06:47:54;;;;;;;;;;;;;;;-17.49;58.80;96363.78;6269226;28;19931;-66
2024/01/09 06:50:58;;;;;;;;;;;;;;;-17.31;58.17;96372.75;6269133;28;19920;-66
2024/01/09 06:53:59;;;;;;;;;;;;;;;-17.46;57.27;96375.63;6251708;28;19929;-66
2024/01/09 06:56:59;;;;;;;;;;;;;;;-17.56;58.09;96371.91;6243397;28;20370;-66
2024/01/09 07:00:04;;;;;;;;;;;;;;;-17.14;58.66;96364.13;6243778;28;20345;-66
2024/01/09 07:03:07;;;;;;;;;;;;;;;-16.67;58.96;96373.97;6244265;28;19920;-66
2024/01/09 07:06:10;;;;;;;;;;;;;;;-16.45;58.63;96358.72;6244345;28;19921;-66
2024/01/09 07:09:16;;;;;;;;;;;;;;;-16.25;58.24;96350.94;6244281;28;19921;-65
2024/01/09 07:12:17;;;;;;;;;;;;;;;-16.28;58.57;96345.81;6244332;28;19921;-66
2024/01/09 07:15:18;;;;;;;;;;;;;;;-16.28;58.88;96340.75;6263904;28;20073;-66
2024/01/09 07:18:27;;;;;;;;;;;;;;;-16.27;58.36;96340.81;6249138;28;20346;-67
2024/01/09 07:21:29;;;;;;;;;;;;;;;-16.54;58.16;96328.25;6249080;28;19921;-67
2024/01/09 07:24:30;;;;;;;;;;;;;;;-16.53;58.41;96315.72;6248399;28;19960;-67
2024/01/09 07:27:33;;;;;;;;;;;;;;;-16.58;58.41;96307.16;6248391;28;19973;-67
2024/01/09 07:30:34;;;;;;;;;;;;;;;-16.41;58.98;96292.56;6248060;28;19932;-66
2024/01/09 07:33:38;;;;;;;;;;;;;;;-16.01;59.67;96295.38;6230514;28;20398;-68
2024/01/09 07:36:39;;;;;;;;;;;;;;;-15.71;58.58;96290.31;6248578;28;19917;-67
2024/01/09 07:39:48;;;;;;;;;;;;;;;-15.52;59.22;96282.38;6248741;28;19920;-67
2024/01/09 07:42:51;;;;;;;;;;;;;;;-15.53;58.13;96280.69;6248730;28;19921;-67
2024/01/09 07:45:55;;;;;;;;;;;;;;;-15.39;58.25;96269.28;6247877;28;19916;-67
2024/01/09 07:48:58;;;;;;;;;;;;;;;-15.33;58.48;96272.78;6248373;28;20012;-67
2024/01/09 07:52:05;;;;;;;;;;;;;;;-15.31;59.00;96272.00;6248442;28;19932;-67
2024/01/09 07:55:06;;;;;;;;;;;;;;;-15.21;59.23;96268.03;6271800;28;20439;-67
2024/01/09 07:58:07;;;;;;;;;;;;;;;-15.11;58.27;96277.53;6272670;28;20341;-67
2024/01/09 08:01:14;;;;;;;;;;;;;;;-15.00;56.44;96271.09;6255095;28;19921;-67
2024/01/09 08:04:17;;;;;;;;;;;;;;;-15.40;56.73;96261.66;6272513;28;19928;-67
2024/01/09 08:07:18;;;;;;;;;;;;;;;-15.57;56.76;96263.75;6272826;28;20030;-66
2024/01/09 08:10:19;;;;;;;;;;;;;;;-15.53;57.61;96259.66;6272408;28;19921;-66
2024/01/09 08:13:22;;;;;;;;;;;;;;;-15.25;57.86;96251.13;6272705;28;19920;-67
2024/01/09 08:16:24;;;;;;;;;;;;;;;-15.14;57.66;96256.41;6272282;28;19929;-67
2024/01/09 08:19:25;;;;;;;;;;;;;;;-15.32;57.06;96244.19;6271957;28;19920;-67
2024/01/09 08:22:27;;;;;;;;;;;;;;;-15.49;57.10;96226.97;6272470;28;19921;-67
2024/01/09 08:25:28;;;;;;;;;;;;;;;-15.55;57.56;96231.88;6270700;28;20291;-66
2024/01/09 08:28:29;;;;;;;;;;;;;;;-15.37;56.34;96221.38;6271760;28;19927;-66
2024/01/09 08:31:32;;;;;;;;;;;;;;;-15.75;56.58;96221.31;6272286;28;19921;-67
2024/01/09 08:34:36;;;;;;;;;;;;;;;-15.85;57.64;96217.72;6272267;28;20388;-66
2024/01/09 08:37:39;;;;;;;;;;;;;;;-15.68;58.02;96209.69;6271185;28;20003;-66
2024/01/09 08:40:41;;;;;;;;;;;;;;;-15.58;58.18;96206.56;6271480;28;19920;-66
2024/01/09 08:43:45;;;;;;;;;;;;;;;-15.42;58.62;96198.56;6272193;28;19927;-67
2024/01/09 08:46:46;;;;;;;;;;;;;;;-15.30;58.82;96207.25;6271691;28;19982;-66
2024/01/09 08:49:51;;;;;;;;;;;;;;;-15.21;58.30;96210.00;6271210;28;19941;-66
2024/01/09 08:52:52;;;;;;;;;;;;;;;-15.39;58.17;96193.59;6263663;28;19921;-66
2024/01/09 08:55:54;;;;;;;;;;;;;;;-15.70;58.51;96188.66;6228549;28;20010;-67
2024/01/09 08:58:56;;;;;;;;;;;;;;;-15.72;59.04;96187.75;6246088;28;19921;-67
2024/01/09 09:01:59;;;;;;;;;;;;;;;-15.67;59.07;96182.00;6246663;28;20099;-66
2024/01/09 09:05:00;;;;;;;;;;;;;;;-15.87;57.77;96171.44;6245996;28;19921;-66
2024/01/09 09:08:04;;;;;;;;;;;;;;;-16.05;57.24;96173.47;6246870;28;20069;-68
2024/01/09 09:11:08;;;;;;;;;;;;;;;-16.24;57.35;96158.69;6246616;28;20432;-67
2024/01/09 09:14:11;;;;;;;;;;;;;;;-16.20;57.83;96157.97;6246004;28;20302;-67
2024/01/09 09:17:14;;;;;;;;;;;;;;;-16.36;57.05;96144.97;6245841;28;20015;-67
2024/01/09 09:20:16;;;;;;;;;;;;;;;-16.15;58.68;96151.38;6245977;28;19927;-67
2024/01/09 09:23:20;;;;;;;;;;;;;;;-16.03;58.16;96146.66;6246133;28;19920;-67
2024/01/09 09:26:21;;;;;;;;;;;;;;;-16.23;57.80;96145.28;6246158;28;20019;-66
2024/01/09 09:29:27;;;;;;;;;;;;;;;-16.30;58.62;96142.59;6246188;28;19961;-68
2024/01/09 09:32:28;;;;;;;;;;;;;;;-15.99;58.67;96145.94;6245136;28;20011;-66
2024/01/09 09:35:38;;;;;;;;;;;;;;;-16.00;58.99;96154.28;6244870;28;20409;-66
2024/01/09 09:38:40;;;;;;;;;;;;;;;-15.87;59.05;96153.78;6245313;28;20677;-67
2024/01/09 09:41:43;;;;;;;;;;;;;;;-16.03;58.44;96146.66;6245366;28;19921;-66
2024/01/09 09:44:50;;;;;;;;;;;;;;;-16.22;58.63;96119.28;6246291;28;19925;-66
2024/01/09 09:47:53;;;;;;;;;;;;;;;-15.98;59.23;96124.94;6245019;28;20416;-67
2024/01/09 09:50:55;;;;;;;;;;;;;;;-15.94;58.06;96121.69;6244874;28;20294;-65
2024/01/09 09:53:57;;;;;;;;;;;;;;;-16.27;58.44;96111.63;6227264;28;19936;-67
2024/01/09 09:56:58;;;;;;;;;;;;;;;-16.10;59.23;96114.56;6245034;28;19952;-67
2024/01/09 10:00:03;;;;;;;;;;;;;;;-15.99;59.02;96113.16;6244970;28;19925;-67
2024/01/09 10:03:08;;;;;;;;;;;;;;;-15.89;59.11;96105.00;6244832;28;19944;-66
2024/01/09 10:06:14;;;;;;;;;;;;;;;-15.99;59.20;96098.06;6244990;28;19920;-67
2024/01/09 10:09:15;;;;;;;;;;;;;;;-16.12;59.47;96101.06;6244414;28;20515;-66
2024/01/09 10:12:18;;;;;;;;;;;;;;;-16.02;59.84;96102.13;6244558;28;19921;-66
2024/01/09 10:15:20;;;;;;;;;;;;;;;-15.90;59.60;96095.75;6244656;28;19921;-67
2024/01/09 10:18:23;;;;;;;;;;;;;;;-15.83;59.92;96085.81;6244618;28;20033;-68
2024/01/09 10:21:24;;;;;;;;;;;;;;;-15.96;59.61;96088.03;6244853;28;19921;-66
2024/01/09 10:24:25;;;;;;;;;;;;;;;-15.87;60.20;96072.28;6244355;28;19928;-68
2024/01/09 10:27:26;;;;;;;;;;;;;;;-16.00;60.15;96083.72;6244474;28;19920;-67
2024/01/09 10:30:27;;;;;;;;;;;;;;;-16.10;60.23;96071.75;6244363;28;19923;-67
2024/01/09 10:33:30;;;;;;;;;;;;;;;-16.03;60.66;96063.50;6244257;28;19928;-67
2024/01/09 10:36:34;;;;;;;;;;;;;;;-16.24;60.38;96060.47;6244974;28;19927;-67
2024/01/09 10:39:38;;;;;;;;;;;;;;;-16.23;60.98;96055.44;6243754;28;19936;-67
2024/01/09 10:42:45;;;;;;;;;;;;;;;-16.17;59.61;96062.31;6244142;28;19983;-67
2024/01/09 10:45:52;;;;;;;;;;;;;;;-16.49;59.81;96069.06;6244568;28;20390;-66
2024/01/09 10:48:55;;;;;;;;;;;;;;;-16.68;59.90;96063.53;6243495;28;19920;-66
2024/01/09 10:51:59;;;;;;;;;;;;;;;-16.53;60.74;96053.00;6243718;28;19927;-67
2024/01/09 10:55:02;;;;;;;;;;;;;;;-16.66;60.38;96061.06;6243611;28;19925;-67
2024/01/09 10:58:08;;;;;;;;;;;;;;;-16.69;60.45;96055.94;6243676;28;19928;-67
2024/01/09 11:01:13;;;;;;;;;;;;;;;-16.65;60.61;96051.00;6244247;28;19920;-67
2024/01/09 11:04:16;;;;;;;;;;;;;;;-16.60;60.54;96046.13;6244015;28;19921;-66
2024/01/09 11:07:23;;;;;;;;;;;;;;;-16.91;60.54;96035.25;6244752;28;19921;-69
2024/01/09 11:10:25;;;;;;;;;;;;;;;-17.04;60.88;96043.28;6243896;28;19943;-67
2024/01/09 11:13:29;;;;;;;;;;;;;;;-17.06;61.39;96037.38;6243929;28;19921;-67
2024/01/09 11:16:32;;;;;;;;;;;;;;;-17.11;61.67;96044.78;6242346;28;20302;-67
2024/01/09 11:19:36;;;;;;;;;;;;;;;-17.14;61.79;96036.28;6243201;28;19928;-66
2024/01/09 11:22:39;;;;;;;;;;;;;;;-17.31;61.77;96026.59;6243997;28;20386;-67
2024/01/09 11:25:41;;;;;;;;;;;;;;;-17.38;62.15;96026.38;6242582;28;20395;-67
2024/01/09 11:28:42;;;;;;;;;;;;;;;-17.27;61.98;96025.88;6243349;28;19921;-66
2024/01/09 11:31:47;;;;;;;;;;;;;;;-17.23;61.84;96019.28;6244004;28;19928;-66
2024/01/09 11:34:48;;;;;;;;;;;;;;;-17.39;62.24;96022.16;6243952;28;19925;-67
2024/01/09 11:37:52;;;;;;;;;;;;;;;-17.39;62.43;96018.00;6243727;28;19921;-67
2024/01/09 11:40:55;;;;;;;;;;;;;;;-17.37;62.71;96018.06;6243861;28;20413;-66
2024/01/09 11:44:07;;;;;;;;;;;;;;;-17.54;62.56;96005.00;6243454;28;19945;-66
2024/01/09 11:47:08;;;;;;;;;;;;;;;-17.45;62.65;95996.03;6242889;28;20064;-66
2024/01/09 11:50:10;;;;;;;;;;;;;;;-17.61;62.99;95993.03;6243442;28;20015;-67
2024/01/09 11:53:11;;;;;;;;;;;;;;;-17.39;62.81;95986.97;6240074;28;19921;-66
2024/01/09 11:56:18;;;;;;;;;;;;;;;-17.44;62.75;95989.34;6242968;28;20063;-65
2024/01/09 11:59:19;;;;;;;;;;;;;;;-17.32;62.54;95986.31;6269363;28;19928;-66
2024/01/09 12:02:20;;;;;;;;;;;;;;;-17.12;61.30;95979.31;6270742;28;19927;-67
2024/01/09 12:05:22;;;;;;;;;;;;;;;-17.56;61.91;95971.41;6272539;28;20023;-66
2024/01/09 12:08:26;;;;;;;;;;;;;;;-17.77;62.48;95967.50;6272985;28;20403;-65
2024/01/09 12:11:29;;;;;;;;;;;;;;;-17.66;62.92;95966.13;6272425;28;19921;-66
2024/01/09 12:14:30;;;;;;;;;;;;;;;-17.30;63.06;95965.44;6272560;28;19974;-66
2024/01/09 12:17:37;;;;;;;;;;;;;;;-17.51;62.99;95954.81;6272174;28;20271;-66
2024/01/09 12:20:38;;;;;;;;;;;;;;;-17.58;62.98;95953.75;6272400;28;19927;-67
2024/01/09 12:23:42;;;;;;;;;;;;;;;-17.57;63.31;95932.03;6272520;28;19916;-66
2024/01/09 12:26:45;;;;;;;;;;;;;;;-17.48;63.40;95929.75;6272298;28;20301;-66
2024/01/09 12:29:46;;;;;;;;;;;;;;;-17.08;63.45;95931.66;6271741;28;20394;-67
2024/01/09 12:32:50;;;;;;;;;;;;;;;-17.14;63.66;95935.69;6272143;28;19921;-66
2024/01/09 12:35:51;;;;;;;;;;;;;;;-16.99;63.73;95920.97;6272156;28;19927;-68
2024/01/09 12:38:52;;;;;;;;;;;;;;;-17.07;63.68;95918.25;6271734;28;19986;-65
2024/01/09 12:42:04;;;;;;;;;;;;;;;-17.02;64.03;95921.75;6270480;28;19955;-66
2024/01/09 12:45:05;;;;;;;;;;;;;;;-17.15;64.04;95913.84;6271756;28;19928;-66
2024/01/09 12:48:09;;;;;;;;;;;;;;;-17.25;64.04;95907.75;6271776;28;19920;-66
2024/01/09 12:51:10;;;;;;;;;;;;;;;-17.22;64.39;95903.63;6271549;28;20018;-67
2024/01/09 12:54:14;;;;;;;;;;;;;;;-17.11;64.45;95905.59;6290661;28;19920;-67
2024/01/09 12:57:16;;;;;;;;;;;;;;;-17.11;63.65;95898.03;6287837;28;20008;-66
2024/01/09 13:00:20;;;;;;;;;;;;;;;-17.08;64.29;95880.50;6271449;28;20449;-66
2024/01/09 13:03:24;;;;;;;;;;;;;;;-17.17;64.47;95890.34;6271643;28;19916;-67
2024/01/09 13:06:27;;;;;;;;;;;;;;;-17.17;64.42;95880.28;6270855;28;20505;-66
2024/01/09 13:09:28;;;;;;;;;;;;;;;-16.94;64.44;95879.19;6270780;28;19927;-66
2024/01/09 13:12:32;;;;;;;;;;;;;;;-16.89;64.36;95882.69;6271206;28;20018;-67
2024/01/09 13:15:33;;;;;;;;;;;;;;;-17.00;64.45;95874.84;6270859;28;20276;-67
2024/01/09 13:18:37;;;;;;;;;;;;;;;-17.04;64.71;95862.16;6270891;28;19927;-66
2024/01/09 13:21:42;;;;;;;;;;;;;;;-16.72;64.30;95869.63;6270867;28;19921;-67
2024/01/09 13:24:44;;;;;;;;;;;;;;;-16.71;64.31;95861.25;6270960;28;20379;-66
2024/01/09 13:27:45;;;;;;;;;;;;;;;-16.62;64.07;95851.38;6270134;28;20356;-67
2024/01/09 13:30:46;;;;;;;;;;;;;;;-16.75;64.31;95841.03;6270805;28;19921;-66
2024/01/09 13:33:49;;;;;;;;;;;;;;;-16.79;64.36;95830.91;6269802;28;19981;-65
2024/01/09 13:36:55;;;;;;;;;;;;;;;-16.69;64.32;95831.94;6270287;28;20409;-66
2024/01/09 13:39:56;;;;;;;;;;;;;;;-16.81;64.55;95820.81;6269862;28;19932;-66
2024/01/09 13:42:57;;;;;;;;;;;;;;;-16.78;64.97;95815.00;6270134;28;19927;-65
2024/01/09 13:46:01;;;;;;;;;;;;;;;-16.50;65.27;95820.59;6270259;28;19928;-67
2024/01/09 13:49:05;;;;;;;;;;;;;;;-16.44;64.87;95831.69;6270019;28;19921;-68
2024/01/09 13:52:06;;;;;;;;;;;;;;;-16.63;64.82;95822.84;6268629;28;19928;-66
2024/01/09 13:55:12;;;;;;;;;;;;;;;-16.61;65.48;95818.72;6245799;28;19921;-68
2024/01/09 13:58:13;;;;;;;;;;;;;;;-16.49;65.08;95818.13;6245074;28;20020;-67
2024/01/09 14:01:17;;;;;;;;;;;;;;;-16.49;65.42;95808.06;6244792;28;19928;-67
2024/01/09 14:04:21;;;;;;;;;;;;;;;-16.51;65.53;95802.13;6245482;28;20014;-67
2024/01/09 14:07:24;;;;;;;;;;;;;;;-16.34;65.47;95797.47;6245403;28;19925;-67
2024/01/09 14:10:25;;;;;;;;;;;;;;;-16.39;65.64;95794.00;6244849;28;19928;-66
2024/01/09 14:13:26;;;;;;;;;;;;;;;-16.34;65.95;95793.25;6244850;28;19921;-66
2024/01/09 14:16:30;;;;;;;;;;;;;;;-16.00;65.32;95788.91;6245467;28;19921;-67
2024/01/09 14:19:34;;;;;;;;;;;;;;;-16.16;65.51;95781.88;6245111;28;19928;-68
2024/01/09 14:22:36;;;;;;;;;;;;;;;-16.13;65.48;95771.88;6244268;28;19932;-67
2024/01/09 14:25:37;;;;;;;;;;;;;;;-16.11;66.03;95770.22;6244346;28;19928;-67
2024/01/09 14:28:41;;;;;;;;;;;;;;;-16.09;66.02;95769.44;6244958;28;19921;-66
2024/01/09 14:31:43;;;;;;;;;;;;;;;-15.88;66.18;95763.09;6244509;28;19921;-67
2024/01/09 14:34:46;;;;;;;;;;;;;;;-15.94;65.94;95753.75;6244913;28;19920;-66
2024/01/09 14:37:48;;;;;;;;;;;;;;;-15.76;66.41;95753.25;6243764;28;19925;-66
2024/01/09 14:40:49;;;;;;;;;;;;;;;-15.67;66.31;95740.78;6243965;28;19927;-66
2024/01/09 14:43:51;;;;;;;;;;;;;;;-15.50;66.48;95733.50;6243801;28;19920;-66
2024/01/09 14:46:53;;;;;;;;;;;;;;;-15.33;66.25;95727.91;6244186;28;19920;-66
2024/01/09 14:49:56;;;;;;;;;;;;;;;-15.08;66.14;95714.84;6244697;28;19921;-66
2024/01/09 14:52:59;;;;;;;;;;;;;;;-15.14;66.05;95714.78;6243688;28;19944;-67
2024/01/09 14:56:01;;;;;;;;;;;;;;;-15.02;66.83;95709.06;6244586;28;20011;-67
2024/01/09 14:59:03;;;;;;;;;;;;;;;-15.11;66.27;95706.38;6243365;28;19920;-67
2024/01/09 15:02:04;;;;;;;;;;;;;;;-15.11;66.30;95707.25;6244073;28;20370;-68
2024/01/09 15:05:05;;;;;;;;;;;;;;;-14.98;67.20;95696.47;6244335;28;19923;-66
2024/01/09 15:08:06;;;;;;;;;;;;;;;-14.73;66.88;95684.22;6244296;28;19928;-66
2024/01/09 15:11:12;;;;;;;;;;;;;;;-14.79;66.82;95681.59;6244282;28;19917;-67
2024/01/09 15:14:15;;;;;;;;;;;;;;;-14.93;66.82;95669.63;6244063;28;19921;-67
2024/01/09 15:17:18;;;;;;;;;;;;;;;-14.91;67.27;95671.34;6243483;28;19927;-68
2024/01/09 15:20:19;;;;;;;;;;;;;;;-15.01;67.20;95658.59;6243397;28;20302;-67
2024/01/09 15:23:22;;;;;;;;;;;;;;;-14.79;67.53;95656.38;6226770;28;20298;-67
2024/01/09 15:26:23;;;;;;;;;;;;;;;-14.85;67.29;95654.59;6243944;28;19921;-68
2024/01/09 15:29:24;;;;;;;;;;;;;;;-14.99;67.72;95644.31;6243305;28;20579;-66
2024/01/09 15:32:25;;;;;;;;;;;;;;;-14.97;67.70;95632.56;6243323;28;19927;-67
2024/01/09 15:35:26;;;;;;;;;;;;;;;-14.93;67.89;95629.25;6248383;28;19925;-66
2024/01/09 15:38:34;;;;;;;;;;;;;;;-15.04;67.92;95623.22;6248053;28;19921;-67